sensor_id;sensor_type;location;lat;lon;timestamp;P1;durP1;ratioP1;P2;durP2;ratioP2
46561;SDS011;32289;42.688;23.330;2023-12-07T00:01:41;20.80;;;9.45;;
46561;SDS011;32289;42.688;23.330;2023-12-07T00:05:22;17.10;;;9.38;;
46561;SDS011;32289;42.688;23.330;2023-12-07T00:09:02;19.45;;;8.35;;
46561;SDS011;32289;42.688;23.330;2023-12-07T00:12:43;20.50;;;8.85;;
46561;SDS011;32289;42.688;23.330;2023-12-07T00:16:24;19.10;;;8.18;;
46561;SDS011;32289;42.688;23.330;2023-12-07T00:20:05;16.42;;;8.25;;
46561;SDS011;32289;42.688;23.330;2023-12-07T00:23:46;20.00;;;8.00;;
46561;SDS011;32289;42.688;23.330;2023-12-07T00:27:26;19.90;;;9.00;;
46561;SDS011;32289;42.688;23.330;2023-12-07T00:31:10;20.80;;;9.32;;
46561;SDS011;32289;42.688;23.330;2023-12-07T00:34:50;17.75;;;9.13;;
46561;SDS011;32289;42.688;23.330;2023-12-07T00:38:31;22.83;;;9.50;;
46561;SDS011;32289;42.688;23.330;2023-12-07T00:42:12;23.73;;;10.88;;
46561;SDS011;32289;42.688;23.330;2023-12-07T00:45:53;22.83;;;10.75;;
46561;SDS011;32289;42.688;23.330;2023-12-07T00:49:37;22.25;;;11.35;;
46561;SDS011;32289;42.688;23.330;2023-12-07T00:53:19;22.83;;;10.95;;
46561;SDS011;32289;42.688;23.330;2023-12-07T00:57:03;27.77;;;12.15;;
46561;SDS011;32289;42.688;23.330;2023-12-07T01:00:44;26.73;;;11.13;;
46561;SDS011;32289;42.688;23.330;2023-12-07T01:04:24;29.73;;;12.30;;
46561;SDS011;32289;42.688;23.330;2023-12-07T01:08:05;28.65;;;12.73;;
46561;SDS011;32289;42.688;23.330;2023-12-07T01:11:46;33.55;;;11.65;;
46561;SDS011;32289;42.688;23.330;2023-12-07T01:15:27;27.08;;;13.18;;
46561;SDS011;32289;42.688;23.330;2023-12-07T01:19:07;32.25;;;12.88;;
46561;SDS011;32289;42.688;23.330;2023-12-07T01:22:48;33.83;;;12.13;;
46561;SDS011;32289;42.688;23.330;2023-12-07T01:26:29;32.33;;;12.70;;
46561;SDS011;32289;42.688;23.330;2023-12-07T01:30:10;31.77;;;13.63;;
46561;SDS011;32289;42.688;23.330;2023-12-07T01:33:50;34.85;;;14.02;;
46561;SDS011;32289;42.688;23.330;2023-12-07T01:37:31;28.10;;;12.77;;
46561;SDS011;32289;42.688;23.330;2023-12-07T01:41:12;31.60;;;13.35;;
46561;SDS011;32289;42.688;23.330;2023-12-07T01:44:53;37.42;;;13.73;;
46561;SDS011;32289;42.688;23.330;2023-12-07T01:48:33;37.42;;;13.52;;
46561;SDS011;32289;42.688;23.330;2023-12-07T01:52:14;30.40;;;13.25;;
46561;SDS011;32289;42.688;23.330;2023-12-07T01:55:55;31.63;;;13.30;;
46561;SDS011;32289;42.688;23.330;2023-12-07T01:59:36;30.70;;;12.55;;
46561;SDS011;32289;42.688;23.330;2023-12-07T02:03:17;31.38;;;11.73;;
46561;SDS011;32289;42.688;23.330;2023-12-07T02:06:58;35.88;;;13.00;;
46561;SDS011;32289;42.688;23.330;2023-12-07T02:10:41;28.30;;;12.10;;
46561;SDS011;32289;42.688;23.330;2023-12-07T02:14:22;27.70;;;12.65;;
46561;SDS011;32289;42.688;23.330;2023-12-07T02:18:06;23.98;;;10.38;;
46561;SDS011;32289;42.688;23.330;2023-12-07T02:22:07;30.50;;;12.73;;
46561;SDS011;32289;42.688;23.330;2023-12-07T02:30:29;26.90;;;10.80;;
46561;SDS011;32289;42.688;23.330;2023-12-07T02:34:10;22.13;;;11.48;;
46561;SDS011;32289;42.688;23.330;2023-12-07T02:37:51;28.35;;;12.35;;
46561;SDS011;32289;42.688;23.330;2023-12-07T02:41:33;23.15;;;10.40;;
46561;SDS011;32289;42.688;23.330;2023-12-07T02:45:15;27.17;;;11.75;;
46561;SDS011;32289;42.688;23.330;2023-12-07T02:48:57;33.08;;;11.27;;
46561;SDS011;32289;42.688;23.330;2023-12-07T02:52:38;28.20;;;12.25;;
46561;SDS011;32289;42.688;23.330;2023-12-07T02:56:19;30.35;;;11.73;;
46561;SDS011;32289;42.688;23.330;2023-12-07T03:00:00;29.10;;;11.52;;
46561;SDS011;32289;42.688;23.330;2023-12-07T03:03:46;31.08;;;11.70;;
46561;SDS011;32289;42.688;23.330;2023-12-07T03:07:27;23.95;;;11.75;;
46561;SDS011;32289;42.688;23.330;2023-12-07T03:11:07;26.58;;;12.82;;
46561;SDS011;32289;42.688;23.330;2023-12-07T03:14:48;22.90;;;11.40;;
46561;SDS011;32289;42.688;23.330;2023-12-07T03:18:29;25.23;;;11.05;;
46561;SDS011;32289;42.688;23.330;2023-12-07T03:22:10;22.58;;;8.65;;
46561;SDS011;32289;42.688;23.330;2023-12-07T03:25:53;21.17;;;8.43;;
46561;SDS011;32289;42.688;23.330;2023-12-07T03:29:34;20.77;;;8.43;;
46561;SDS011;32289;42.688;23.330;2023-12-07T03:33:14;15.85;;;6.95;;
46561;SDS011;32289;42.688;23.330;2023-12-07T03:36:55;16.33;;;8.32;;
46561;SDS011;32289;42.688;23.330;2023-12-07T03:40:36;14.13;;;7.13;;
46561;SDS011;32289;42.688;23.330;2023-12-07T03:44:17;15.77;;;7.97;;
46561;SDS011;32289;42.688;23.330;2023-12-07T03:47:57;16.67;;;7.53;;
46561;SDS011;32289;42.688;23.330;2023-12-07T03:51:38;19.65;;;7.90;;
46561;SDS011;32289;42.688;23.330;2023-12-07T03:55:19;18.55;;;7.97;;
46561;SDS011;32289;42.688;23.330;2023-12-07T03:58:59;18.48;;;8.60;;
46561;SDS011;32289;42.688;23.330;2023-12-07T04:02:40;16.27;;;7.75;;
46561;SDS011;32289;42.688;23.330;2023-12-07T04:06:21;18.38;;;7.85;;
46561;SDS011;32289;42.688;23.330;2023-12-07T04:10:02;16.60;;;7.57;;
46561;SDS011;32289;42.688;23.330;2023-12-07T04:13:46;17.60;;;8.25;;
46561;SDS011;32289;42.688;23.330;2023-12-07T04:17:27;19.17;;;7.80;;
46561;SDS011;32289;42.688;23.330;2023-12-07T04:21:08;20.02;;;8.75;;
46561;SDS011;32289;42.688;23.330;2023-12-07T04:24:49;18.52;;;7.95;;
46561;SDS011;32289;42.688;23.330;2023-12-07T04:28:30;20.73;;;8.65;;
46561;SDS011;32289;42.688;23.330;2023-12-07T04:32:10;17.92;;;7.40;;
46561;SDS011;32289;42.688;23.330;2023-12-07T04:35:51;19.40;;;8.40;;
46561;SDS011;32289;42.688;23.330;2023-12-07T04:39:32;18.70;;;8.18;;
46561;SDS011;32289;42.688;23.330;2023-12-07T04:43:15;17.08;;;8.27;;
46561;SDS011;32289;42.688;23.330;2023-12-07T04:46:56;21.38;;;9.38;;
46561;SDS011;32289;42.688;23.330;2023-12-07T04:50:37;22.33;;;9.00;;
46561;SDS011;32289;42.688;23.330;2023-12-07T04:54:17;20.08;;;8.38;;
46561;SDS011;32289;42.688;23.330;2023-12-07T04:57:59;18.05;;;8.35;;
46561;SDS011;32289;42.688;23.330;2023-12-07T05:01:39;18.85;;;7.82;;
46561;SDS011;32289;42.688;23.330;2023-12-07T05:05:20;20.52;;;9.00;;
46561;SDS011;32289;42.688;23.330;2023-12-07T05:09:01;19.63;;;8.85;;
46561;SDS011;32289;42.688;23.330;2023-12-07T05:12:42;18.92;;;8.55;;
46561;SDS011;32289;42.688;23.330;2023-12-07T05:16:23;21.00;;;8.40;;
46561;SDS011;32289;42.688;23.330;2023-12-07T05:20:04;21.40;;;9.93;;
46561;SDS011;32289;42.688;23.330;2023-12-07T05:23:50;22.77;;;8.77;;
46561;SDS011;32289;42.688;23.330;2023-12-07T05:27:33;17.48;;;8.50;;
46561;SDS011;32289;42.688;23.330;2023-12-07T05:31:17;18.65;;;9.15;;
46561;SDS011;32289;42.688;23.330;2023-12-07T05:34:59;17.05;;;8.95;;
46561;SDS011;32289;42.688;23.330;2023-12-07T05:38:39;20.52;;;9.18;;
46561;SDS011;32289;42.688;23.330;2023-12-07T05:42:21;23.98;;;9.85;;
46561;SDS011;32289;42.688;23.330;2023-12-07T05:46:06;19.02;;;9.48;;
46561;SDS011;32289;42.688;23.330;2023-12-07T05:49:47;21.60;;;10.35;;
46561;SDS011;32289;42.688;23.330;2023-12-07T05:53:28;22.38;;;10.55;;
46561;SDS011;32289;42.688;23.330;2023-12-07T05:57:09;29.45;;;10.43;;
46561;SDS011;32289;42.688;23.330;2023-12-07T06:00:49;19.35;;;10.20;;
46561;SDS011;32289;42.688;23.330;2023-12-07T06:04:30;21.67;;;9.95;;
46561;SDS011;32289;42.688;23.330;2023-12-07T06:08:11;23.45;;;10.60;;
46561;SDS011;32289;42.688;23.330;2023-12-07T06:11:52;19.60;;;9.18;;
46561;SDS011;32289;42.688;23.330;2023-12-07T06:15:33;24.20;;;9.15;;
46561;SDS011;32289;42.688;23.330;2023-12-07T06:19:14;14.48;;;7.57;;
46561;SDS011;32289;42.688;23.330;2023-12-07T06:22:54;19.13;;;8.35;;
46561;SDS011;32289;42.688;23.330;2023-12-07T06:26:35;21.67;;;8.45;;
46561;SDS011;32289;42.688;23.330;2023-12-07T06:30:16;19.83;;;8.25;;
46561;SDS011;32289;42.688;23.330;2023-12-07T06:33:58;20.08;;;8.90;;
46561;SDS011;32289;42.688;23.330;2023-12-07T06:37:40;18.20;;;9.35;;
46561;SDS011;32289;42.688;23.330;2023-12-07T06:41:21;16.60;;;8.15;;
46561;SDS011;32289;42.688;23.330;2023-12-07T06:45:03;24.60;;;8.68;;
46561;SDS011;32289;42.688;23.330;2023-12-07T06:48:43;21.33;;;9.02;;
46561;SDS011;32289;42.688;23.330;2023-12-07T06:52:24;17.95;;;8.13;;
46561;SDS011;32289;42.688;23.330;2023-12-07T06:56:05;17.65;;;7.63;;
46561;SDS011;32289;42.688;23.330;2023-12-07T06:59:46;14.65;;;7.10;;
46561;SDS011;32289;42.688;23.330;2023-12-07T07:03:27;17.13;;;7.15;;
46561;SDS011;32289;42.688;23.330;2023-12-07T07:07:08;19.52;;;7.88;;
46561;SDS011;32289;42.688;23.330;2023-12-07T07:10:49;16.23;;;6.72;;
46561;SDS011;32289;42.688;23.330;2023-12-07T07:14:29;13.80;;;7.38;;
46561;SDS011;32289;42.688;23.330;2023-12-07T07:18:10;15.88;;;6.68;;
46561;SDS011;32289;42.688;23.330;2023-12-07T07:21:53;15.60;;;8.23;;
46561;SDS011;32289;42.688;23.330;2023-12-07T07:25:34;15.98;;;8.18;;
46561;SDS011;32289;42.688;23.330;2023-12-07T07:29:15;19.27;;;8.15;;
46561;SDS011;32289;42.688;23.330;2023-12-07T07:32:56;14.48;;;7.72;;
46561;SDS011;32289;42.688;23.330;2023-12-07T07:36:36;19.92;;;8.48;;
46561;SDS011;32289;42.688;23.330;2023-12-07T07:40:17;14.20;;;6.93;;
46561;SDS011;32289;42.688;23.330;2023-12-07T07:43:58;16.80;;;7.88;;
46561;SDS011;32289;42.688;23.330;2023-12-07T07:47:39;18.00;;;8.25;;
46561;SDS011;32289;42.688;23.330;2023-12-07T07:51:20;17.77;;;7.28;;
46561;SDS011;32289;42.688;23.330;2023-12-07T07:55:00;14.70;;;6.80;;
46561;SDS011;32289;42.688;23.330;2023-12-07T07:58:43;15.50;;;6.88;;
46561;SDS011;32289;42.688;23.330;2023-12-07T08:02:23;11.27;;;5.70;;
46561;SDS011;32289;42.688;23.330;2023-12-07T08:06:06;8.45;;;5.00;;
46561;SDS011;32289;42.688;23.330;2023-12-07T08:09:47;12.13;;;4.93;;
46561;SDS011;32289;42.688;23.330;2023-12-07T08:13:28;9.48;;;4.32;;
46561;SDS011;32289;42.688;23.330;2023-12-07T08:17:08;9.70;;;5.03;;
46561;SDS011;32289;42.688;23.330;2023-12-07T08:20:49;8.18;;;4.97;;
46561;SDS011;32289;42.688;23.330;2023-12-07T08:24:30;9.02;;;4.35;;
46561;SDS011;32289;42.688;23.330;2023-12-07T08:28:11;8.68;;;3.90;;
46561;SDS011;32289;42.688;23.330;2023-12-07T08:31:51;9.35;;;3.97;;
46561;SDS011;32289;42.688;23.330;2023-12-07T08:35:32;9.45;;;3.45;;
46561;SDS011;32289;42.688;23.330;2023-12-07T08:39:15;7.90;;;3.85;;
46561;SDS011;32289;42.688;23.330;2023-12-07T08:42:56;5.18;;;2.72;;
46561;SDS011;32289;42.688;23.330;2023-12-07T08:46:37;7.53;;;4.68;;
46561;SDS011;32289;42.688;23.330;2023-12-07T08:50:18;8.50;;;3.30;;
46561;SDS011;32289;42.688;23.330;2023-12-07T08:53:58;7.20;;;3.00;;
46561;SDS011;32289;42.688;23.330;2023-12-07T08:57:39;5.72;;;3.08;;
46561;SDS011;32289;42.688;23.330;2023-12-07T09:01:20;6.53;;;3.03;;
46561;SDS011;32289;42.688;23.330;2023-12-07T09:05:00;5.72;;;3.00;;
46561;SDS011;32289;42.688;23.330;2023-12-07T09:08:41;6.28;;;2.58;;
46561;SDS011;32289;42.688;23.330;2023-12-07T09:12:22;3.97;;;1.83;;
46561;SDS011;32289;42.688;23.330;2023-12-07T09:16:04;5.20;;;2.50;;
46561;SDS011;32289;42.688;23.330;2023-12-07T09:19:45;6.55;;;2.92;;
46561;SDS011;32289;42.688;23.330;2023-12-07T09:23:26;8.15;;;3.28;;
46561;SDS011;32289;42.688;23.330;2023-12-07T09:27:07;4.93;;;2.53;;
46561;SDS011;32289;42.688;23.330;2023-12-07T09:30:47;9.60;;;3.13;;
46561;SDS011;32289;42.688;23.330;2023-12-07T09:34:31;5.70;;;2.40;;
46561;SDS011;32289;42.688;23.330;2023-12-07T09:38:19;5.03;;;2.13;;
46561;SDS011;32289;42.688;23.330;2023-12-07T09:42:02;4.80;;;2.67;;
46561;SDS011;32289;42.688;23.330;2023-12-07T09:45:44;7.40;;;3.58;;
46561;SDS011;32289;42.688;23.330;2023-12-07T09:49:25;6.60;;;3.35;;
46561;SDS011;32289;42.688;23.330;2023-12-07T09:53:07;6.72;;;2.60;;
46561;SDS011;32289;42.688;23.330;2023-12-07T09:56:48;5.03;;;2.83;;
46561;SDS011;32289;42.688;23.330;2023-12-07T10:00:29;6.32;;;2.97;;
46561;SDS011;32289;42.688;23.330;2023-12-07T10:04:16;3.65;;;2.45;;
46561;SDS011;32289;42.688;23.330;2023-12-07T10:08:02;7.53;;;3.08;;
46561;SDS011;32289;42.688;23.330;2023-12-07T10:11:43;12.63;;;4.95;;
46561;SDS011;32289;42.688;23.330;2023-12-07T10:15:24;10.90;;;4.75;;
46561;SDS011;32289;42.688;23.330;2023-12-07T10:19:15;8.85;;;2.65;;
46561;SDS011;32289;42.688;23.330;2023-12-07T10:26:44;4.25;;;2.15;;
46561;SDS011;32289;42.688;23.330;2023-12-07T10:30:26;4.47;;;1.85;;
46561;SDS011;32289;42.688;23.330;2023-12-07T10:34:07;4.43;;;2.30;;
46561;SDS011;32289;42.688;23.330;2023-12-07T10:37:48;3.95;;;2.00;;
46561;SDS011;32289;42.688;23.330;2023-12-07T10:41:29;5.15;;;2.38;;
46561;SDS011;32289;42.688;23.330;2023-12-07T10:45:10;5.38;;;2.50;;
46561;SDS011;32289;42.688;23.330;2023-12-07T10:48:55;4.30;;;2.20;;
46561;SDS011;32289;42.688;23.330;2023-12-07T10:52:45;4.47;;;2.70;;
46561;SDS011;32289;42.688;23.330;2023-12-07T10:56:40;3.67;;;1.90;;
46561;SDS011;32289;42.688;23.330;2023-12-07T11:00:26;5.20;;;2.65;;
46561;SDS011;32289;42.688;23.330;2023-12-07T11:04:13;11.93;;;4.10;;
46561;SDS011;32289;42.688;23.330;2023-12-07T11:08:15;8.73;;;3.60;;
46561;SDS011;32289;42.688;23.330;2023-12-07T11:12:25;6.05;;;3.20;;
46561;SDS011;32289;42.688;23.330;2023-12-07T11:16:11;5.63;;;2.63;;
46561;SDS011;32289;42.688;23.330;2023-12-07T11:19:51;7.43;;;3.22;;
46561;SDS011;32289;42.688;23.330;2023-12-07T11:23:32;6.40;;;3.30;;
46561;SDS011;32289;42.688;23.330;2023-12-07T11:27:13;8.02;;;3.83;;
46561;SDS011;32289;42.688;23.330;2023-12-07T11:30:54;5.78;;;2.63;;
46561;SDS011;32289;42.688;23.330;2023-12-07T11:34:41;4.95;;;2.67;;
46561;SDS011;32289;42.688;23.330;2023-12-07T11:38:23;8.20;;;3.67;;
46561;SDS011;32289;42.688;23.330;2023-12-07T11:42:07;10.30;;;3.40;;
46561;SDS011;32289;42.688;23.330;2023-12-07T11:45:51;7.22;;;3.97;;
46561;SDS011;32289;42.688;23.330;2023-12-07T11:49:33;12.02;;;6.53;;
46561;SDS011;32289;42.688;23.330;2023-12-07T11:53:13;12.88;;;7.07;;
46561;SDS011;32289;42.688;23.330;2023-12-07T11:57:06;14.82;;;8.18;;
46561;SDS011;32289;42.688;23.330;2023-12-07T12:00:47;12.82;;;6.95;;
46561;SDS011;32289;42.688;23.330;2023-12-07T12:04:28;9.00;;;3.95;;
46561;SDS011;32289;42.688;23.330;2023-12-07T12:08:18;6.80;;;3.13;;
46561;SDS011;32289;42.688;23.330;2023-12-07T12:11:59;5.93;;;2.78;;
46561;SDS011;32289;42.688;23.330;2023-12-07T12:15:41;8.65;;;3.40;;
46561;SDS011;32289;42.688;23.330;2023-12-07T12:19:22;6.22;;;2.50;;
46561;SDS011;32289;42.688;23.330;2023-12-07T12:23:07;7.40;;;3.75;;
46561;SDS011;32289;42.688;23.330;2023-12-07T12:26:49;5.15;;;3.15;;
46561;SDS011;32289;42.688;23.330;2023-12-07T12:30:31;8.32;;;3.33;;
46561;SDS011;32289;42.688;23.330;2023-12-07T12:34:12;7.63;;;3.67;;
46561;SDS011;32289;42.688;23.330;2023-12-07T12:37:53;7.35;;;3.35;;
46561;SDS011;32289;42.688;23.330;2023-12-07T12:41:35;6.28;;;2.60;;
46561;SDS011;32289;42.688;23.330;2023-12-07T12:45:17;11.25;;;3.45;;
46561;SDS011;32289;42.688;23.330;2023-12-07T12:49:01;14.20;;;6.22;;
46561;SDS011;32289;42.688;23.330;2023-12-07T12:52:42;6.88;;;3.33;;
46561;SDS011;32289;42.688;23.330;2023-12-07T12:56:23;5.13;;;2.90;;
46561;SDS011;32289;42.688;23.330;2023-12-07T13:00:04;5.22;;;2.83;;
46561;SDS011;32289;42.688;23.330;2023-12-07T13:03:47;8.32;;;3.72;;
46561;SDS011;32289;42.688;23.330;2023-12-07T13:07:27;6.30;;;2.40;;
46561;SDS011;32289;42.688;23.330;2023-12-07T13:11:08;9.55;;;3.38;;
46561;SDS011;32289;42.688;23.330;2023-12-07T13:14:49;6.03;;;2.58;;
46561;SDS011;32289;42.688;23.330;2023-12-07T13:18:29;6.40;;;2.97;;
46561;SDS011;32289;42.688;23.330;2023-12-07T13:22:11;7.57;;;3.00;;
46561;SDS011;32289;42.688;23.330;2023-12-07T13:25:52;10.00;;;2.90;;
46561;SDS011;32289;42.688;23.330;2023-12-07T13:29:32;5.40;;;2.97;;
46561;SDS011;32289;42.688;23.330;2023-12-07T13:33:13;5.80;;;3.08;;
46561;SDS011;32289;42.688;23.330;2023-12-07T13:36:54;8.32;;;3.22;;
46561;SDS011;32289;42.688;23.330;2023-12-07T13:40:35;7.13;;;3.40;;
46561;SDS011;32289;42.688;23.330;2023-12-07T13:44:19;6.00;;;2.30;;
46561;SDS011;32289;42.688;23.330;2023-12-07T13:48:00;8.15;;;3.88;;
46561;SDS011;32289;42.688;23.330;2023-12-07T13:51:40;7.70;;;3.67;;
46561;SDS011;32289;42.688;23.330;2023-12-07T13:55:29;6.13;;;3.67;;
46561;SDS011;32289;42.688;23.330;2023-12-07T13:59:09;3.22;;;2.05;;
46561;SDS011;32289;42.688;23.330;2023-12-07T14:02:52;5.90;;;3.10;;
46561;SDS011;32289;42.688;23.330;2023-12-07T14:06:32;5.15;;;2.63;;
46561;SDS011;32289;42.688;23.330;2023-12-07T14:10:16;4.82;;;2.92;;
46561;SDS011;32289;42.688;23.330;2023-12-07T14:13:56;5.10;;;2.83;;
46561;SDS011;32289;42.688;23.330;2023-12-07T14:17:37;8.95;;;3.50;;
46561;SDS011;32289;42.688;23.330;2023-12-07T14:21:19;6.18;;;3.70;;
46561;SDS011;32289;42.688;23.330;2023-12-07T14:25:01;6.13;;;3.03;;
46561;SDS011;32289;42.688;23.330;2023-12-07T14:28:41;7.07;;;3.42;;
46561;SDS011;32289;42.688;23.330;2023-12-07T14:32:22;6.65;;;3.80;;
46561;SDS011;32289;42.688;23.330;2023-12-07T14:36:04;8.98;;;4.05;;
46561;SDS011;32289;42.688;23.330;2023-12-07T14:39:45;10.52;;;3.92;;
46561;SDS011;32289;42.688;23.330;2023-12-07T14:43:25;10.30;;;4.28;;
46561;SDS011;32289;42.688;23.330;2023-12-07T14:47:09;8.95;;;4.38;;
46561;SDS011;32289;42.688;23.330;2023-12-07T14:50:50;8.98;;;4.65;;
46561;SDS011;32289;42.688;23.330;2023-12-07T14:54:32;11.95;;;5.78;;
46561;SDS011;32289;42.688;23.330;2023-12-07T14:58:16;9.23;;;5.20;;
46561;SDS011;32289;42.688;23.330;2023-12-07T15:01:56;10.93;;;4.60;;
46561;SDS011;32289;42.688;23.330;2023-12-07T15:05:37;8.95;;;5.13;;
46561;SDS011;32289;42.688;23.330;2023-12-07T15:09:18;9.02;;;5.00;;
46561;SDS011;32289;42.688;23.330;2023-12-07T15:12:59;9.98;;;5.43;;
46561;SDS011;32289;42.688;23.330;2023-12-07T15:16:41;8.05;;;4.65;;
46561;SDS011;32289;42.688;23.330;2023-12-07T15:20:25;10.98;;;4.68;;
46561;SDS011;32289;42.688;23.330;2023-12-07T15:24:06;11.73;;;6.47;;
46561;SDS011;32289;42.688;23.330;2023-12-07T15:27:47;9.07;;;4.72;;
46561;SDS011;32289;42.688;23.330;2023-12-07T15:31:28;9.90;;;4.70;;
46561;SDS011;32289;42.688;23.330;2023-12-07T15:35:11;12.52;;;5.68;;
46561;SDS011;32289;42.688;23.330;2023-12-07T15:38:51;11.95;;;5.07;;
46561;SDS011;32289;42.688;23.330;2023-12-07T15:42:33;11.88;;;4.70;;
46561;SDS011;32289;42.688;23.330;2023-12-07T15:46:13;10.52;;;5.55;;
46561;SDS011;32289;42.688;23.330;2023-12-07T15:49:57;10.52;;;5.18;;
46561;SDS011;32289;42.688;23.330;2023-12-07T15:53:38;9.88;;;4.68;;
46561;SDS011;32289;42.688;23.330;2023-12-07T15:57:21;11.00;;;5.63;;
46561;SDS011;32289;42.688;23.330;2023-12-07T16:01:02;9.90;;;5.50;;
46561;SDS011;32289;42.688;23.330;2023-12-07T16:04:49;11.63;;;5.38;;
46561;SDS011;32289;42.688;23.330;2023-12-07T16:08:32;11.57;;;5.20;;
46561;SDS011;32289;42.688;23.330;2023-12-07T16:12:13;11.82;;;4.97;;
46561;SDS011;32289;42.688;23.330;2023-12-07T16:15:54;15.35;;;7.22;;
46561;SDS011;32289;42.688;23.330;2023-12-07T16:19:35;13.65;;;6.60;;
46561;SDS011;32289;42.688;23.330;2023-12-07T16:23:15;13.23;;;6.15;;
46561;SDS011;32289;42.688;23.330;2023-12-07T16:26:56;12.82;;;6.53;;
46561;SDS011;32289;42.688;23.330;2023-12-07T16:30:39;17.58;;;7.53;;
46561;SDS011;32289;42.688;23.330;2023-12-07T16:34:19;12.65;;;5.55;;
46561;SDS011;32289;42.688;23.330;2023-12-07T16:38:00;11.30;;;6.13;;
46561;SDS011;32289;42.688;23.330;2023-12-07T16:41:41;12.68;;;5.88;;
46561;SDS011;32289;42.688;23.330;2023-12-07T16:45:25;10.60;;;5.35;;
46561;SDS011;32289;42.688;23.330;2023-12-07T16:49:06;12.00;;;4.90;;
46561;SDS011;32289;42.688;23.330;2023-12-07T16:52:47;15.85;;;6.93;;
46561;SDS011;32289;42.688;23.330;2023-12-07T16:56:28;12.35;;;6.32;;
46561;SDS011;32289;42.688;23.330;2023-12-07T17:00:09;12.75;;;6.00;;
46561;SDS011;32289;42.688;23.330;2023-12-07T17:03:50;11.00;;;5.55;;
46561;SDS011;32289;42.688;23.330;2023-12-07T17:07:31;12.70;;;5.78;;
46561;SDS011;32289;42.688;23.330;2023-12-07T17:11:12;12.30;;;5.47;;
46561;SDS011;32289;42.688;23.330;2023-12-07T17:14:53;10.38;;;5.70;;
46561;SDS011;32289;42.688;23.330;2023-12-07T17:18:34;7.50;;;4.40;;
46561;SDS011;32289;42.688;23.330;2023-12-07T17:22:14;9.40;;;5.35;;
46561;SDS011;32289;42.688;23.330;2023-12-07T17:25:55;11.23;;;5.40;;
46561;SDS011;32289;42.688;23.330;2023-12-07T17:29:36;10.48;;;5.32;;
46561;SDS011;32289;42.688;23.330;2023-12-07T17:33:17;13.15;;;6.47;;
46561;SDS011;32289;42.688;23.330;2023-12-07T17:36:58;12.35;;;5.75;;
46561;SDS011;32289;42.688;23.330;2023-12-07T17:40:39;11.10;;;5.75;;
46561;SDS011;32289;42.688;23.330;2023-12-07T17:44:20;13.63;;;6.10;;
46561;SDS011;32289;42.688;23.330;2023-12-07T17:48:01;15.10;;;6.95;;
46561;SDS011;32289;42.688;23.330;2023-12-07T17:51:42;14.18;;;6.32;;
46561;SDS011;32289;42.688;23.330;2023-12-07T17:55:22;14.30;;;5.47;;
46561;SDS011;32289;42.688;23.330;2023-12-07T17:59:06;8.43;;;5.10;;
46561;SDS011;32289;42.688;23.330;2023-12-07T18:02:49;9.70;;;4.82;;
46561;SDS011;32289;42.688;23.330;2023-12-07T18:06:30;8.52;;;4.88;;
46561;SDS011;32289;42.688;23.330;2023-12-07T18:10:11;15.77;;;6.22;;
46561;SDS011;32289;42.688;23.330;2023-12-07T18:13:54;12.63;;;5.72;;
46561;SDS011;32289;42.688;23.330;2023-12-07T18:17:34;15.73;;;6.70;;
46561;SDS011;32289;42.688;23.330;2023-12-07T18:21:15;11.70;;;5.78;;
46561;SDS011;32289;42.688;23.330;2023-12-07T18:24:58;15.55;;;6.00;;
46561;SDS011;32289;42.688;23.330;2023-12-07T18:28:39;8.73;;;5.47;;
46561;SDS011;32289;42.688;23.330;2023-12-07T18:32:20;14.70;;;5.88;;
46561;SDS011;32289;42.688;23.330;2023-12-07T18:36:01;12.55;;;5.40;;
46561;SDS011;32289;42.688;23.330;2023-12-07T18:39:42;10.93;;;5.68;;
46561;SDS011;32289;42.688;23.330;2023-12-07T18:43:23;15.55;;;7.05;;
46561;SDS011;32289;42.688;23.330;2023-12-07T18:47:04;14.73;;;5.90;;
46561;SDS011;32289;42.688;23.330;2023-12-07T18:50:46;12.30;;;6.28;;
46561;SDS011;32289;42.688;23.330;2023-12-07T18:54:27;12.98;;;6.47;;
46561;SDS011;32289;42.688;23.330;2023-12-07T18:58:13;10.95;;;5.60;;
46561;SDS011;32289;42.688;23.330;2023-12-07T19:01:54;15.90;;;6.75;;
46561;SDS011;32289;42.688;23.330;2023-12-07T19:05:35;15.38;;;6.70;;
46561;SDS011;32289;42.688;23.330;2023-12-07T19:09:16;16.67;;;6.70;;
46561;SDS011;32289;42.688;23.330;2023-12-07T19:13:00;13.57;;;7.43;;
46561;SDS011;32289;42.688;23.330;2023-12-07T19:16:41;14.63;;;6.60;;
46561;SDS011;32289;42.688;23.330;2023-12-07T19:20:22;15.73;;;6.95;;
46561;SDS011;32289;42.688;23.330;2023-12-07T19:24:03;18.35;;;8.82;;
46561;SDS011;32289;42.688;23.330;2023-12-07T19:27:45;16.70;;;8.85;;
46561;SDS011;32289;42.688;23.330;2023-12-07T19:31:26;20.00;;;8.57;;
46561;SDS011;32289;42.688;23.330;2023-12-07T19:35:12;16.90;;;8.00;;
46561;SDS011;32289;42.688;23.330;2023-12-07T19:38:53;16.83;;;7.95;;
46561;SDS011;32289;42.688;23.330;2023-12-07T19:42:33;16.98;;;8.00;;
46561;SDS011;32289;42.688;23.330;2023-12-07T19:46:17;19.70;;;7.95;;
46561;SDS011;32289;42.688;23.330;2023-12-07T19:49:58;18.50;;;9.15;;
46561;SDS011;32289;42.688;23.330;2023-12-07T19:53:39;18.48;;;8.88;;
46561;SDS011;32289;42.688;23.330;2023-12-07T19:57:19;16.55;;;8.07;;
46561;SDS011;32289;42.688;23.330;2023-12-07T20:01:03;18.90;;;8.40;;
46561;SDS011;32289;42.688;23.330;2023-12-07T20:04:43;16.88;;;8.23;;
46561;SDS011;32289;42.688;23.330;2023-12-07T20:08:24;17.58;;;7.72;;
46561;SDS011;32289;42.688;23.330;2023-12-07T20:12:05;23.55;;;10.75;;
46561;SDS011;32289;42.688;23.330;2023-12-07T20:15:46;17.80;;;8.77;;
46561;SDS011;32289;42.688;23.330;2023-12-07T20:19:30;14.75;;;6.97;;
46561;SDS011;32289;42.688;23.330;2023-12-07T20:23:14;14.35;;;7.10;;
46561;SDS011;32289;42.688;23.330;2023-12-07T20:26:54;13.27;;;6.70;;
46561;SDS011;32289;42.688;23.330;2023-12-07T20:30:35;14.55;;;7.38;;
46561;SDS011;32289;42.688;23.330;2023-12-07T20:34:16;12.68;;;6.72;;
46561;SDS011;32289;42.688;23.330;2023-12-07T20:37:56;15.55;;;6.75;;
46561;SDS011;32289;42.688;23.330;2023-12-07T20:41:37;11.50;;;5.97;;
46561;SDS011;32289;42.688;23.330;2023-12-07T20:45:18;11.70;;;6.30;;
46561;SDS011;32289;42.688;23.330;2023-12-07T20:48:58;12.98;;;6.22;;
46561;SDS011;32289;42.688;23.330;2023-12-07T20:52:39;12.00;;;5.97;;
46561;SDS011;32289;42.688;23.330;2023-12-07T20:56:20;13.32;;;5.18;;
46561;SDS011;32289;42.688;23.330;2023-12-07T21:00:01;10.77;;;4.78;;
46561;SDS011;32289;42.688;23.330;2023-12-07T21:03:46;14.20;;;5.78;;
46561;SDS011;32289;42.688;23.330;2023-12-07T21:07:26;16.48;;;7.20;;
46561;SDS011;32289;42.688;23.330;2023-12-07T21:11:07;12.23;;;6.75;;
46561;SDS011;32289;42.688;23.330;2023-12-07T21:14:49;14.02;;;6.32;;
46561;SDS011;32289;42.688;23.330;2023-12-07T21:18:30;13.75;;;5.60;;
46561;SDS011;32289;42.688;23.330;2023-12-07T21:22:11;13.50;;;6.50;;
46561;SDS011;32289;42.688;23.330;2023-12-07T21:25:52;9.07;;;5.60;;
46561;SDS011;32289;42.688;23.330;2023-12-07T21:29:33;13.23;;;5.90;;
46561;SDS011;32289;42.688;23.330;2023-12-07T21:33:13;14.18;;;5.63;;
46561;SDS011;32289;42.688;23.330;2023-12-07T21:36:54;10.23;;;5.65;;
46561;SDS011;32289;42.688;23.330;2023-12-07T21:40:35;9.90;;;4.75;;
46561;SDS011;32289;42.688;23.330;2023-12-07T21:44:15;11.82;;;5.63;;
46561;SDS011;32289;42.688;23.330;2023-12-07T21:47:56;12.32;;;5.70;;